Snoqualmie River: North Fork station

back to: Snoqualmie river
North Fork station Summary - (NOAA Hydrograph: SNQW1)
Latest reading:
Tue10/20 11:15 pm 4.28 ft 834 cfs (-24/hr)
Past 24hr max:
Tue10/20 01:30 am 5.32 ft 1562 cfs
Forecasted crests: (published Tue 10/20/20 02:15 pm)
Wed10/21 11:00 pm 4.4 ft 903 cfs
Sat10/24 05:00 am 4.12 ft 745 cfs

North Fork station Details

Latest Readings

Last 100 Readings:
Tue10/20 11:15 pm 4.28 ft 834 cfs
Tue10/20 11:00 pm 4.29 ft 840 cfs
Tue10/20 10:45 pm 4.3 ft 846 cfs
Tue10/20 10:30 pm 4.31 ft 851 cfs
Tue10/20 10:15 pm 4.33 ft 863 cfs
Tue10/20 10:00 pm 4.3 ft 846 cfs
Tue10/20 09:45 pm 4.33 ft 863 cfs
Tue10/20 09:30 pm 4.34 ft 869 cfs
Tue10/20 09:15 pm 4.34 ft 869 cfs
Tue10/20 09:00 pm 4.34 ft 869 cfs
Tue10/20 08:45 pm 4.35 ft 875 cfs
Tue10/20 08:30 pm 4.39 ft 898 cfs
Tue10/20 08:15 pm 4.37 ft 887 cfs
Tue10/20 08:00 pm 4.44 ft 929 cfs
Tue10/20 07:45 pm 4.39 ft 898 cfs
Tue10/20 07:30 pm 4.42 ft 916 cfs
Tue10/20 07:15 pm 4.42 ft 916 cfs
Tue10/20 07:00 pm 4.41 ft 910 cfs
Tue10/20 06:45 pm 4.44 ft 929 cfs
Tue10/20 06:30 pm 4.43 ft 923 cfs
Tue10/20 06:15 pm 4.45 ft 935 cfs
Tue10/20 06:00 pm 4.45 ft 935 cfs
Tue10/20 05:45 pm 4.5 ft 966 cfs
Tue10/20 05:30 pm 4.49 ft 959 cfs
Tue10/20 05:15 pm 4.47 ft 947 cfs
Tue10/20 05:00 pm 4.48 ft 953 cfs
Tue10/20 04:45 pm 4.51 ft 972 cfs
Tue10/20 04:30 pm 4.52 ft 978 cfs
Tue10/20 04:15 pm 4.53 ft 985 cfs
Tue10/20 04:00 pm 4.54 ft 991 cfs
Tue10/20 03:45 pm 4.53 ft 985 cfs
Tue10/20 03:30 pm 4.56 ft 1004 cfs
Tue10/20 03:15 pm 4.58 ft 1016 cfs
Tue10/20 03:00 pm 4.56 ft 1004 cfs
Tue10/20 02:45 pm 4.57 ft 1010 cfs
Tue10/20 02:30 pm 4.58 ft 1016 cfs
Tue10/20 02:15 pm 4.6 ft 1029 cfs
Tue10/20 02:00 pm 4.61 ft 1036 cfs
Tue10/20 01:45 pm 4.63 ft 1049 cfs
Tue10/20 01:30 pm 4.63 ft 1049 cfs
Tue10/20 01:15 pm 4.62 ft 1042 cfs
Tue10/20 01:00 pm 4.66 ft 1069 cfs
Tue10/20 12:45 pm 4.67 ft 1075 cfs
Tue10/20 12:30 pm 4.69 ft 1089 cfs
Tue10/20 12:15 pm 4.7 ft 1096 cfs
Tue10/20 12:00 pm 4.72 ft 1109 cfs
Tue10/20 11:45 am 4.72 ft 1109 cfs
Tue10/20 11:30 am 4.73 ft 1116 cfs
Tue10/20 11:15 am 4.74 ft 1123 cfs
Tue10/20 11:00 am 4.78 ft 1150 cfs
Tue10/20 10:45 am 4.76 ft 1136 cfs
Tue10/20 10:30 am 4.82 ft 1178 cfs
Tue10/20 10:15 am 4.8 ft 1164 cfs
Tue10/20 10:00 am 4.83 ft 1185 cfs
Tue10/20 09:45 am 4.81 ft 1171 cfs
Tue10/20 09:30 am 4.84 ft 1192 cfs
Tue10/20 09:15 am 4.85 ft 1199 cfs
Tue10/20 09:00 am 4.89 ft 1228 cfs
Tue10/20 08:45 am 4.9 ft 1235 cfs
Tue10/20 08:30 am 4.88 ft 1221 cfs
Tue10/20 08:15 am 4.92 ft 1250 cfs
Tue10/20 08:00 am 4.92 ft 1250 cfs
Tue10/20 07:45 am 4.93 ft 1257 cfs
Tue10/20 07:30 am 4.98 ft 1294 cfs
Tue10/20 07:15 am 4.99 ft 1302 cfs
Tue10/20 07:00 am 4.99 ft 1302 cfs
Tue10/20 06:45 am 5.01 ft 1317 cfs
Tue10/20 06:30 am 5.05 ft 1347 cfs
Tue10/20 06:15 am 5.07 ft 1362 cfs
Tue10/20 06:00 am 5.07 ft 1362 cfs
Tue10/20 05:45 am 5.09 ft 1378 cfs
Tue10/20 05:30 am 5.09 ft 1378 cfs
Tue10/20 05:15 am 5.12 ft 1401 cfs
Tue10/20 05:00 am 5.12 ft 1401 cfs
Tue10/20 04:45 am 5.16 ft 1432 cfs
Tue10/20 04:30 am 5.18 ft 1448 cfs
Tue10/20 04:15 am 5.18 ft 1448 cfs
Tue10/20 04:00 am 5.2 ft 1464 cfs
Tue10/20 03:45 am 5.21 ft 1472 cfs
Tue10/20 03:30 am 5.22 ft 1480 cfs
Tue10/20 03:15 am 5.25 ft 1505 cfs
Tue10/20 03:00 am 5.24 ft 1496 cfs
Tue10/20 02:45 am 5.2 ft 1464 cfs
Tue10/20 02:30 am 5.25 ft 1505 cfs
Tue10/20 02:15 am 5.27 ft 1521 cfs
Tue10/20 02:00 am 5.31 ft 1554 cfs
Tue10/20 01:45 am 5.27 ft 1521 cfs
Tue10/20 01:30 am 5.32 ft 1562 cfs
Tue10/20 01:15 am 5.27 ft 1521 cfs
Tue10/20 01:00 am 5.25 ft 1505 cfs
Tue10/20 12:45 am 5.29 ft 1537 cfs
Tue10/20 12:30 am 5.27 ft 1521 cfs
Tue10/20 12:15 am 5.25 ft 1505 cfs
Tue10/20 12:00 am 5.24 ft 1496 cfs
Mon10/19 11:45 pm 5.21 ft 1472 cfs
Mon10/19 11:30 pm 5.21 ft 1472 cfs
Mon10/19 11:15 pm 5.23 ft 1488 cfs
Mon10/19 11:00 pm 5.14 ft 1417 cfs
Mon10/19 10:45 pm 5.17 ft 1440 cfs
Mon10/19 10:30 pm 5.12 ft 1401 cfs

Latest Forecasts

Currently Forecasted Readings:
Tue10/20 05:00 pm 4.47 ft 948 cfs
Tue10/20 11:00 pm 4.21 ft 797 cfs
Wed10/21 05:00 am 4.17 ft 771 cfs
Wed10/21 11:00 am 4.24 ft 811 cfs
Wed10/21 05:00 pm 4.36 ft 879 cfs
Wed10/21 11:00 pm 4.4 ft 903 cfs
Thu10/22 05:00 am 4.26 ft 824 cfs
Thu10/22 11:00 am 4.04 ft 702 cfs
Thu10/22 05:00 pm 3.87 ft 620 cfs
Thu10/22 11:00 pm 3.75 ft 564 cfs
Fri10/23 05:00 am 3.66 ft 523 cfs
Fri10/23 11:00 am 3.58 ft 489 cfs
Fri10/23 05:00 pm 3.59 ft 494 cfs
Fri10/23 11:00 pm 3.96 ft 661 cfs
Sat10/24 05:00 am 4.12 ft 745 cfs
Sat10/24 11:00 am 3.98 ft 671 cfs
Sat10/24 05:00 pm 3.73 ft 553 cfs
Sat10/24 11:00 pm 3.55 ft 477 cfs
Sun10/25 05:00 am 3.43 ft 430 cfs
Sun10/25 11:00 am 3.35 ft 399 cfs
Sun10/25 05:00 pm 3.28 ft 375 cfs
Sun10/25 11:00 pm 3.23 ft 355 cfs
Mon10/26 05:00 am 3.17 ft 337 cfs
Mon10/26 11:00 am 3.12 ft 321 cfs
Mon10/26 05:00 pm 3.08 ft 306 cfs
Mon10/26 11:00 pm 3.04 ft 293 cfs
Tue10/27 05:00 am 3.0 ft 281 cfs
Tue10/27 11:00 am 2.97 ft 273 cfs
Tue10/27 05:00 pm 2.95 ft 267 cfs
Tue10/27 11:00 pm 2.92 ft 259 cfs
Wed10/28 05:00 am 2.9 ft 254 cfs
Wed10/28 11:00 am 2.88 ft 247 cfs
Wed10/28 05:00 pm 2.85 ft 239 cfs
Wed10/28 11:00 pm 2.82 ft 231 cfs
Thu10/29 05:00 am 2.99 ft 280 cfs
Thu10/29 11:00 am 3.06 ft 302 cfs
Thu10/29 05:00 pm 3.16 ft 333 cfs
Thu10/29 11:00 pm 3.58 ft 488 cfs
Fri10/30 05:00 am 3.86 ft 614 cfs

Snoqualmie River flood gauge data supplied by the
National Weather Service Northwest River Forecast Center.

Sign up for Floodzilla alerts.